createdAt,value
2023-01-19T06:11:52.841Z,0.10
2023-01-19T06:12:05.991Z,0.10
2023-01-19T06:13:25.949Z,0.07
2023-01-19T06:13:58.871Z,0.06
2023-01-19T06:15:07.995Z,0.04
2023-01-19T18:07:45.895Z,0.51
2023-01-19T18:08:48.983Z,0.50
2023-01-19T18:09:44.072Z,0.50
2023-01-19T18:10:39.419Z,0.50
2023-01-19T18:11:39.442Z,0.50
2023-01-19T18:12:47.396Z,0.47
2023-01-19T18:13:39.853Z,0.47
2023-01-19T18:14:44.236Z,0.47
2023-01-19T18:15:39.128Z,0.47
2023-01-19T18:16:43.323Z,0.46
2023-01-19T18:17:39.864Z,0.46
2023-01-19T18:25:27.508Z,0.53
2023-01-19T18:26:28.693Z,0.50
2023-01-19T19:26:59.883Z,-0.12
2023-01-19T19:27:04.873Z,-0.17
2023-01-19T19:28:04.927Z,-0.18
2023-01-19T19:29:04.898Z,-0.21
2023-01-19T19:30:04.934Z,-0.24
2023-01-19T19:31:04.950Z,-0.29
2023-01-19T19:32:04.878Z,-0.35
2023-01-19T19:33:04.859Z,-0.42
2023-01-19T19:35:56.367Z,-0.46
2023-01-19T19:36:56.619Z,-0.47
2023-01-19T19:39:36.972Z,-0.46
2023-01-19T20:12:30.035Z,-0.36
2023-01-19T20:20:12.095Z,-0.32
2023-01-19T20:34:15.066Z,-0.25
2023-01-19T20:35:15.825Z,-0.25
2023-01-19T20:36:16.188Z,-0.28
2023-01-19T20:51:19.300Z,-0.21
2023-01-19T20:52:17.015Z,-0.21
2023-01-19T20:53:16.952Z,-0.21
2023-01-19T20:54:16.944Z,-0.21
2023-01-19T20:55:16.915Z,-0.19
2023-01-19T20:56:16.951Z,-0.19
2023-01-19T20:57:16.930Z,-0.18
2023-01-19T20:58:16.982Z,-0.21
2023-01-19T20:59:16.943Z,-0.21
2023-01-19T21:00:17.063Z,-0.21
2023-01-19T21:09:51.779Z,-0.30
2023-01-19T21:10:52.664Z,-0.32
2023-01-19T21:11:52.561Z,-0.32
2023-01-19T21:12:52.519Z,-0.32
2023-01-19T21:13:52.629Z,-0.32
2023-01-19T21:14:52.545Z,-0.33
2023-01-19T21:15:52.505Z,-0.33
2023-01-19T21:16:52.575Z,-0.33
2023-01-19T21:17:52.474Z,-0.32
2023-01-19T21:18:52.724Z,-0.30
